Terminal Aerodrome Forecast
Issued by NWS Wilmington, OH

Current Version | Previous Version | Text Only | Print | Product List | Glossary Off
Versions: 1 2 3 4 5 6 7 8 9 10 11 12 13 14

000
FTUS41 KILN 191700
TAFILN
TAF
KILN 191738Z 1918/2018 VRB03KT P6SM OVC020
     FM200900 00000KT 5SM BR OVC020
     FM201500 VRB03KT P6SM OVC020=

USA.gov is the U.S. government's official web portal to all federal, state and local government web resources and services.